sensor_id;sensor_type;location;lat;lon;timestamp;pressure;altitude;pressure_sealevel;temperature;humidity
26915;BME280;14480;52.608;13.416;2023-03-15T07:58:10;140876.06;;;-12.79;100.00
26915;BME280;14480;52.608;13.416;2023-03-15T08:03:14;140885.88;;;-12.75;100.00
26915;BME280;14480;52.608;13.416;2023-03-15T08:08:22;140895.75;;;-12.71;100.00
26915;BME280;14480;52.608;13.416;2023-03-15T08:13:52;140933.88;;;-12.55;100.00
26915;BME280;14480;52.608;13.416;2023-03-15T08:18:56;140968.28;;;-12.41;100.00
26915;BME280;14480;52.608;13.416;2023-03-15T08:24:04;141004.00;;;-12.26;100.00
26915;BME280;14480;52.608;13.416;2023-03-15T08:46:43;141161.47;;;-11.61;100.00
26915;BME280;14480;52.608;13.416;2023-03-15T08:51:47;141213.22;;;-11.39;100.00
26915;BME280;14480;52.608;13.416;2023-03-15T08:56:50;141187.34;;;-11.50;100.00
26915;BME280;14480;52.608;13.416;2023-03-15T09:01:57;141195.94;;;-11.47;100.00
26915;BME280;14480;52.608;13.416;2023-03-15T09:07:01;141184.88;;;-11.51;100.00
26915;BME280;14480;52.608;13.416;2023-03-15T09:12:05;141335.13;;;-10.89;100.00
26915;BME280;14480;52.608;13.416;2023-03-15T09:17:11;141354.84;;;-10.81;100.00
26915;BME280;14480;52.608;13.416;2023-03-15T09:22:15;141416.47;;;-10.55;100.00
26915;BME280;14480;52.608;13.416;2023-03-15T09:27:39;141330.22;;;-10.91;100.00
26915;BME280;14480;52.608;13.416;2023-03-15T09:32:46;141405.38;;;-10.60;100.00
26915;BME280;14480;52.608;13.416;2023-03-15T09:37:50;141500.22;;;-10.21;100.00
26915;BME280;14480;52.608;13.416;2023-03-15T09:42:59;141510.13;;;-10.17;100.00
26915;BME280;14480;52.608;13.416;2023-03-15T09:48:06;141527.38;;;-10.10;100.00
26915;BME280;14480;52.608;13.416;2023-03-15T09:53:13;141519.97;;;-10.13;100.00
26915;BME280;14480;52.608;13.416;2023-03-15T09:58:20;141497.81;;;-10.22;100.00
26915;BME280;14480;52.608;13.416;2023-03-15T10:03:30;141542.19;;;-10.04;100.00
26915;BME280;14480;52.608;13.416;2023-03-15T10:08:37;141565.63;;;-9.94;100.00
26915;BME280;14480;52.608;13.416;2023-03-15T10:13:44;141616.13;;;-9.73;100.00
26915;BME280;14480;52.608;13.416;2023-03-15T10:18:56;141603.81;;;-9.78;100.00
26915;BME280;14480;52.608;13.416;2023-03-15T10:24:18;141538.50;;;-10.05;100.00
26915;BME280;14480;52.608;13.416;2023-03-15T10:29:22;141571.78;;;-9.91;100.00
26915;BME280;14480;52.608;13.416;2023-03-15T10:34:31;141688.94;;;-9.43;100.00
26915;BME280;14480;52.608;13.416;2023-03-15T10:39:36;141811.09;;;-8.93;100.00
26915;BME280;14480;52.608;13.416;2023-03-15T10:44:39;141855.56;;;-8.74;100.00
26915;BME280;14480;52.608;13.416;2023-03-15T10:49:45;141841.94;;;-8.80;100.00
26915;BME280;14480;52.608;13.416;2023-03-15T10:54:48;141738.31;;;-9.23;100.00
26915;BME280;14480;52.608;13.416;2023-03-15T11:00:00;141491.66;;;-10.24;100.00
26915;BME280;14480;52.608;13.416;2023-03-15T11:05:15;141537.25;;;-10.06;100.00
26915;BME280;14480;52.608;13.416;2023-03-15T11:10:20;141563.16;;;-9.95;100.00
26915;BME280;14480;52.608;13.416;2023-03-15T11:15:24;141677.84;;;-9.48;100.00
26915;BME280;14480;52.608;13.416;2023-03-15T11:20:30;141695.09;;;-9.41;100.00
26915;BME280;14480;52.608;13.416;2023-03-15T11:25:36;141695.09;;;-9.41;100.00
26915;BME280;14480;52.608;13.416;2023-03-15T11:30:40;141756.78;;;-9.15;100.00
26915;BME280;14480;52.608;13.416;2023-03-15T11:35:45;141837.03;;;-8.82;100.00
26915;BME280;14480;52.608;13.416;2023-03-15T11:40:50;141935.81;;;-8.41;100.00
26915;BME280;14480;52.608;13.416;2023-03-15T11:46:00;141929.66;;;-8.44;100.00
26915;BME280;14480;52.608;13.416;2023-03-15T11:51:18;141885.19;;;-8.62;100.00
26915;BME280;14480;52.608;13.416;2023-03-15T11:56:22;141950.63;;;-8.35;100.00
26915;BME280;14480;52.608;13.416;2023-03-15T12:01:26;141992.59;;;-8.18;100.00
26915;BME280;14480;52.608;13.416;2023-03-15T12:07:05;142002.44;;;-8.14;100.00
26915;BME280;14480;52.608;13.416;2023-03-15T12:12:56;141920.97;;;-8.47;100.00
26915;BME280;14480;52.608;13.416;2023-03-15T12:18:01;141840.72;;;-8.80;100.00
26915;BME280;14480;52.608;13.416;2023-03-15T12:23:13;141904.94;;;-8.54;100.00
26915;BME280;14480;52.608;13.416;2023-03-15T12:28:26;141833.31;;;-8.84;100.00
26915;BME280;14480;52.608;13.416;2023-03-15T12:33:44;141911.13;;;-8.51;100.00
26915;BME280;14480;52.608;13.416;2023-03-15T12:38:58;141656.88;;;-9.56;100.00
26915;BME280;14480;52.608;13.416;2023-03-15T12:44:22;141500.22;;;-10.21;100.00
26915;BME280;14480;52.608;13.416;2023-03-15T12:49:33;141492.91;;;-10.24;100.00
26915;BME280;14480;52.608;13.416;2023-03-15T12:54:43;141420.16;;;-10.54;100.00
26915;BME280;14480;52.608;13.416;2023-03-15T12:59:49;141405.38;;;-10.60;100.00
26915;BME280;14480;52.608;13.416;2023-03-15T13:05:06;141443.59;;;-10.44;100.00
26915;BME280;14480;52.608;13.416;2023-03-15T13:10:21;141462.09;;;-10.37;100.00
26915;BME280;14480;52.608;13.416;2023-03-15T13:15:29;141543.41;;;-10.03;100.00
26915;BME280;14480;52.608;13.416;2023-03-15T13:20:39;141527.38;;;-10.10;100.00
26915;BME280;14480;52.608;13.416;2023-03-15T13:25:48;141522.44;;;-10.12;100.00
26915;BME280;14480;52.608;13.416;2023-03-15T13:30:56;141527.38;;;-10.10;100.00
26915;BME280;14480;52.608;13.416;2023-03-15T13:36:00;141420.16;;;-10.54;100.00
26915;BME280;14480;52.608;13.416;2023-03-15T13:41:13;141431.28;;;-10.49;100.00
26915;BME280;14480;52.608;13.416;2023-03-15T13:46:18;141006.47;;;-12.25;100.00
26915;BME280;14480;52.608;13.416;2023-03-15T13:51:24;140892.06;;;-12.72;100.00
26915;BME280;14480;52.608;13.416;2023-03-15T13:56:31;141012.63;;;-12.22;100.00
26915;BME280;14480;52.608;13.416;2023-03-15T14:02:22;141139.31;;;-11.70;100.00
26915;BME280;14480;52.608;13.416;2023-03-15T14:07:27;141264.94;;;-11.18;100.00
26915;BME280;14480;52.608;13.416;2023-03-15T14:12:33;141283.44;;;-11.10;100.00
26915;BME280;14480;52.608;13.416;2023-03-15T14:17:37;141278.47;;;-11.12;100.00
26915;BME280;14480;52.608;13.416;2023-03-15T14:22:40;141306.78;;;-11.01;100.00
26915;BME280;14480;52.608;13.416;2023-03-15T14:27:46;141391.81;;;-10.66;100.00
26915;BME280;14480;52.608;13.416;2023-03-15T14:32:50;141395.56;;;-10.64;100.00
26915;BME280;14480;52.608;13.416;2023-03-15T14:38:01;141451.00;;;-10.41;100.00
26915;BME280;14480;52.608;13.416;2023-03-15T14:43:08;141526.13;;;-10.10;100.00
26915;BME280;14480;52.608;13.416;2023-03-15T14:48:12;141711.16;;;-9.34;100.00
26915;BME280;14480;52.608;13.416;2023-03-15T14:53:17;141681.56;;;-9.46;100.00
26915;BME280;14480;52.608;13.416;2023-03-15T14:58:23;141812.34;;;-8.92;100.00
26915;BME280;14480;52.608;13.416;2023-03-15T15:03:28;141802.47;;;-8.96;100.00
26915;BME280;14480;52.608;13.416;2023-03-15T15:08:36;141888.88;;;-8.61;100.00
26915;BME280;14480;52.608;13.416;2023-03-15T15:13:42;141897.50;;;-8.57;100.00
26915;BME280;14480;52.608;13.416;2023-03-15T15:18:47;141945.69;;;-8.37;100.00
26915;BME280;14480;52.608;13.416;2023-03-15T15:23:51;141795.06;;;-8.99;98.80
26915;BME280;14480;52.608;13.416;2023-03-15T15:29:08;141692.63;;;-9.42;95.97
26915;BME280;14480;52.608;13.416;2023-03-15T15:34:16;141644.50;;;-9.61;95.40
26915;BME280;14480;52.608;13.416;2023-03-15T15:39:21;141601.38;;;-9.79;97.81
26915;BME280;14480;52.608;13.416;2023-03-15T15:44:33;141575.47;;;-9.90;99.37
26915;BME280;14480;52.608;13.416;2023-03-15T15:49:49;141559.41;;;-9.96;100.00
26915;BME280;14480;52.608;13.416;2023-03-15T15:54:53;141405.38;;;-10.60;100.00
26915;BME280;14480;52.608;13.416;2023-03-15T16:00:10;141581.63;;;-9.87;100.00
26915;BME280;14480;52.608;13.416;2023-03-15T16:05:17;141511.34;;;-10.16;100.00
26915;BME280;14480;52.608;13.416;2023-03-15T16:11:01;141271.09;;;-11.15;100.00
26915;BME280;14480;52.608;13.416;2023-03-15T16:17:19;141282.19;;;-11.11;100.00
26915;BME280;14480;52.608;13.416;2023-03-15T16:29:22;141076.59;;;-11.96;100.00
26915;BME280;14480;52.608;13.416;2023-03-15T16:34:42;140824.41;;;-13.00;100.00
26915;BME280;14480;52.608;13.416;2023-03-15T16:40:02;140790.00;;;-13.14;100.00
26915;BME280;14480;52.608;13.416;2023-03-15T16:45:11;140849.00;;;-12.90;100.00
26915;BME280;14480;52.608;13.416;2023-03-15T16:50:18;140844.09;;;-12.92;100.00
26915;BME280;14480;52.608;13.416;2023-03-15T16:55:31;140835.50;;;-12.96;100.00
26915;BME280;14480;52.608;13.416;2023-03-15T17:00:35;140837.97;;;-12.94;100.00
26915;BME280;14480;52.608;13.416;2023-03-15T17:19:08;140814.59;;;-13.04;100.00
26915;BME280;14480;52.608;13.416;2023-03-15T17:24:12;140745.75;;;-13.33;100.00
26915;BME280;14480;52.608;13.416;2023-03-15T17:29:19;140706.44;;;-13.49;100.00
26915;BME280;14480;52.608;13.416;2023-03-15T17:34:27;140681.88;;;-13.59;100.00
26915;BME280;14480;52.608;13.416;2023-03-15T17:39:48;140658.50;;;-13.69;100.00
26915;BME280;14480;52.608;13.416;2023-03-15T17:44:52;140624.13;;;-13.83;100.00
26915;BME280;14480;52.608;13.416;2023-03-15T17:49:58;140587.28;;;-13.98;100.00
26915;BME280;14480;52.608;13.416;2023-03-15T17:55:03;140588.50;;;-13.98;100.00
26915;BME280;14480;52.608;13.416;2023-03-15T18:00:11;140588.50;;;-13.98;100.00
26915;BME280;14480;52.608;13.416;2023-03-15T18:05:17;140555.34;;;-14.11;100.00
26915;BME280;14480;52.608;13.416;2023-03-15T18:10:22;140546.72;;;-14.15;100.00
26915;BME280;14480;52.608;13.416;2023-03-15T18:15:28;140529.56;;;-14.22;100.00
26915;BME280;14480;52.608;13.416;2023-03-15T18:20:47;140519.69;;;-14.26;100.00
26915;BME280;14480;52.608;13.416;2023-03-15T18:25:54;140522.16;;;-14.25;100.00
26915;BME280;14480;52.608;13.416;2023-03-15T18:31:15;140497.59;;;-14.35;100.00
26915;BME280;14480;52.608;13.416;2023-03-15T18:42:44;140474.34;;;-14.45;100.00
26915;BME280;14480;52.608;13.416;2023-03-15T18:47:57;140452.22;;;-14.54;100.00
26915;BME280;14480;52.608;13.416;2023-03-15T18:53:01;140463.25;;;-14.50;100.00
26915;BME280;14480;52.608;13.416;2023-03-15T18:58:11;140457.13;;;-14.52;100.00
26915;BME280;14480;52.608;13.416;2023-03-15T19:03:15;140406.78;;;-14.73;100.00
26915;BME280;14480;52.608;13.416;2023-03-15T19:08:20;140409.25;;;-14.72;100.00
26915;BME280;14480;52.608;13.416;2023-03-15T19:13:26;140392.09;;;-14.79;100.00
26915;BME280;14480;52.608;13.416;2023-03-15T19:18:30;140367.53;;;-14.89;100.00
26915;BME280;14480;52.608;13.416;2023-03-15T19:23:34;140356.47;;;-14.94;100.00
26915;BME280;14480;52.608;13.416;2023-03-15T19:28:39;140339.31;;;-15.01;100.00
26915;BME280;14480;52.608;13.416;2023-03-15T19:33:43;140339.31;;;-15.01;100.00
26915;BME280;14480;52.608;13.416;2023-03-15T19:38:46;140320.88;;;-15.09;100.00
26915;BME280;14480;52.608;13.416;2023-03-15T19:43:51;140313.53;;;-15.12;100.00
26915;BME280;14480;52.608;13.416;2023-03-15T19:48:55;140306.19;;;-15.15;100.00
26915;BME280;14480;52.608;13.416;2023-03-15T19:53:59;140280.41;;;-15.25;100.00
26915;BME280;14480;52.608;13.416;2023-03-15T19:59:06;140293.88;;;-15.20;100.00
26915;BME280;14480;52.608;13.416;2023-03-15T20:04:11;140279.19;;;-15.26;100.00
26915;BME280;14480;52.608;13.416;2023-03-15T20:09:15;140274.25;;;-15.28;100.00
26915;BME280;14480;52.608;13.416;2023-03-15T20:14:23;140264.44;;;-15.32;100.00
26915;BME280;14480;52.608;13.416;2023-03-15T20:19:28;140253.44;;;-15.37;100.00
26915;BME280;14480;52.608;13.416;2023-03-15T20:24:32;140243.59;;;-15.41;100.00
26915;BME280;14480;52.608;13.416;2023-03-15T20:29:40;140233.78;;;-15.45;100.00
26915;BME280;14480;52.608;13.416;2023-03-15T20:34:44;140231.34;;;-15.46;100.00
26915;BME280;14480;52.608;13.416;2023-03-15T20:39:48;140216.59;;;-15.52;100.00
26915;BME280;14480;52.608;13.416;2023-03-15T20:44:53;140203.13;;;-15.57;100.00
26915;BME280;14480;52.608;13.416;2023-03-15T20:50:00;140189.66;;;-15.63;100.00
26915;BME280;14480;52.608;13.416;2023-03-15T20:55:05;140186.00;;;-15.65;100.00
26915;BME280;14480;52.608;13.416;2023-03-15T21:00:12;140176.19;;;-15.69;100.00
26915;BME280;14480;52.608;13.416;2023-03-15T21:05:23;140166.41;;;-15.73;100.00
26915;BME280;14480;52.608;13.416;2023-03-15T21:10:30;140161.47;;;-15.75;100.00
26915;BME280;14480;52.608;13.416;2023-03-15T21:15:40;140161.47;;;-15.75;100.00
26915;BME280;14480;52.608;13.416;2023-03-15T21:20:53;140148.00;;;-15.80;100.00
26915;BME280;14480;52.608;13.416;2023-03-15T21:26:03;140148.00;;;-15.80;100.00
26915;BME280;14480;52.608;13.416;2023-03-15T21:31:10;140135.75;;;-15.85;100.00
26915;BME280;14480;52.608;13.416;2023-03-15T21:36:14;140130.81;;;-15.87;100.00
26915;BME280;14480;52.608;13.416;2023-03-15T21:41:20;140122.25;;;-15.91;100.00
26915;BME280;14480;52.608;13.416;2023-03-15T21:46:26;140114.91;;;-15.94;100.00
26915;BME280;14480;52.608;13.416;2023-03-15T21:51:30;140103.84;;;-15.99;100.00
26915;BME280;14480;52.608;13.416;2023-03-15T21:56:38;140095.25;;;-16.02;100.00
26915;BME280;14480;52.608;13.416;2023-03-15T22:01:43;140078.09;;;-16.09;100.00
26915;BME280;14480;52.608;13.416;2023-03-15T22:06:53;140078.09;;;-16.09;100.00
26915;BME280;14480;52.608;13.416;2023-03-15T22:11:57;140076.84;;;-16.10;100.00
26915;BME280;14480;52.608;13.416;2023-03-15T22:17:10;140074.41;;;-16.11;100.00
26915;BME280;14480;52.608;13.416;2023-03-15T22:22:14;140058.50;;;-16.17;100.00
26915;BME280;14480;52.608;13.416;2023-03-15T22:27:32;140048.66;;;-16.22;100.00
